Time;durP1;ratioP1;P1;durP2;ratioP2;P2;SDS_P1;SDS_P2;PMS_P1;PMS_P2;Temp;Humidity;BMP_temperature;BMP_pressure;BME280_temperature;BME280_humidity;BME280_pressure;Samples;Min_cycle;Max_cycle;Signal;HPM_P1;HPM_P2
2022/06/24 00:01:26;;;;;;;6.43;2.20;;;18.50;99.90;;;;;;5037906;28;20434;-87
2022/06/24 00:03:52;;;;;;;3.63;2.40;;;18.80;99.90;;;;;;5053397;28;20842;-87
2022/06/24 00:06:19;;;;;;;6.43;3.43;;;18.60;99.90;;;;;;5042835;28;20465;-87
2022/06/24 00:08:58;;;;;;;2.73;1.60;;;18.70;99.90;;;;;;5041491;28;20192;-87
2022/06/24 00:11:28;;;;;;;2.13;1.60;;;18.80;99.90;;;;;;5057801;28;20532;-88
2022/06/24 00:14:07;;;;;;;4.80;2.23;;;18.80;99.90;;;;;;5035990;28;20529;-88
2022/06/24 00:16:55;;;;;;;4.27;2.33;;;18.60;99.90;;;;;;5042257;28;20476;-88
2022/06/24 00:19:21;;;;;;;5.50;2.30;;;18.50;99.90;;;;;;5039540;28;21110;-88
2022/06/24 00:22:03;;;;;;;5.33;1.93;;;18.50;99.90;;;;;;5034924;28;20577;-88
2022/06/24 00:24:33;;;;;;;4.43;2.67;;;18.40;99.90;;;;;;5040820;28;20434;-88
2022/06/24 00:26:59;;;;;;;2.57;2.37;;;18.40;99.90;;;;;;5052342;28;20922;-88
2022/06/24 00:29:27;;;;;;;4.87;2.57;;;18.40;99.90;;;;;;5038335;28;20422;-88
2022/06/24 00:32:07;;;;;;;4.00;2.37;;;18.40;99.90;;;;;;5038982;28;20500;-88
2022/06/24 00:34:38;;;;;;;2.77;1.80;;;18.50;99.90;;;;;;5040106;28;21327;-88
2022/06/24 00:37:24;;;;;;;2.77;2.07;;;18.50;99.90;;;;;;5036223;28;20488;-88
2022/06/24 00:39:50;;;;;;;5.30;1.90;;;18.50;99.90;;;;;;5039740;28;20445;-88
2022/06/24 00:42:18;;;;;;;4.47;1.90;;;18.60;99.90;;;;;;5056889;28;20430;-88
2022/06/24 00:44:49;;;;;;;5.17;1.93;;;18.60;99.90;;;;;;5039306;28;20807;-89
2022/06/24 00:47:16;;;;;;;5.37;2.20;;;18.70;99.90;;;;;;5040186;28;20550;-89
2022/06/24 00:49:45;;;;;;;5.27;2.70;;;18.70;99.90;;;;;;5038517;28;20434;-89
2022/06/24 00:52:11;;;;;;;6.07;2.20;;;18.70;99.90;;;;;;5036861;28;20777;-89
2022/06/24 00:54:37;;;;;;;4.37;2.00;;;18.70;99.90;;;;;;5035386;28;20454;-90
2022/06/24 00:57:03;;;;;;;3.10;2.33;;;18.70;99.90;;;;;;5045851;28;20188;-88
2022/06/24 00:59:33;;;;;;;3.57;2.20;;;18.70;99.90;;;;;;5037464;28;20449;-89
2022/06/24 01:02:03;;;;;;;2.50;1.80;;;18.70;99.90;;;;;;5035786;28;20449;-90
2022/06/24 01:04:31;;;;;;;3.00;2.60;;;18.60;99.90;;;;;;5055705;28;20457;-88
2022/06/24 01:06:57;;;;;;;3.00;2.00;;;18.50;99.90;;;;;;5038205;28;20547;-89
2022/06/24 01:09:25;;;;;;;5.90;2.47;;;18.60;99.90;;;;;;5036272;28;20474;-89
2022/06/24 01:11:51;;;;;;;2.50;2.30;;;18.70;99.90;;;;;;5038882;28;20207;-89
2022/06/24 01:14:17;;;;;;;5.30;2.70;;;18.70;99.90;;;;;;5036258;28;20426;-88
2022/06/24 01:16:43;;;;;;;4.70;2.43;;;18.70;99.90;;;;;;5035936;28;20464;-89
2022/06/24 01:19:10;;;;;;;5.20;2.77;;;18.70;99.90;;;;;;5040400;28;20446;-89
2022/06/24 01:21:48;;;;;;;3.80;2.10;;;18.70;99.90;;;;;;5039457;28;20186;-89
2022/06/24 01:24:19;;;;;;;4.10;2.20;;;18.70;99.90;;;;;;5037493;28;20968;-89
2022/06/24 01:26:54;;;;;;;3.83;2.47;;;18.70;99.90;;;;;;5033306;28;20825;-89
2022/06/24 01:29:29;;;;;;;3.70;2.40;;;18.50;99.90;;;;;;5041018;28;20988;-89
2022/06/24 01:31:57;;;;;;;2.80;1.83;;;18.40;99.90;;;;;;5056085;28;20550;-89
2022/06/24 01:34:23;;;;;;;4.70;2.47;;;18.50;99.90;;;;;;5024438;28;21062;-88
2022/06/24 01:36:50;;;;;;;4.40;2.97;;;18.50;99.90;;;;;;5034571;28;20437;-89
2022/06/24 01:39:16;;;;;;;5.63;2.60;;;18.50;99.90;;;;;;5040059;28;20453;-89
2022/06/24 01:41:41;;;;;;;7.53;2.60;;;18.50;99.90;;;;;;5037206;28;20438;-88
2022/06/24 01:44:07;;;;;;;2.40;2.20;;;18.50;99.90;;;;;;5036532;28;20206;-89
2022/06/24 01:46:42;;;;;;;5.60;2.70;;;18.50;99.90;;;;;;5029271;28;20206;-90
2022/06/24 01:49:08;;;;;;;4.03;2.73;;;18.60;99.90;;;;;;5035575;28;20271;-90
2022/06/24 01:51:35;;;;;;;3.27;2.70;;;18.50;99.90;;;;;;5035072;28;20450;-90
2022/06/24 01:54:01;;;;;;;3.83;2.60;;;18.50;99.90;;;;;;5032777;28;20484;-89
2022/06/24 01:56:27;;;;;;;5.30;2.70;;;18.50;99.90;;;;;;5034443;28;20433;-89
2022/06/24 01:58:52;;;;;;;6.03;2.60;;;18.50;99.90;;;;;;5034498;28;20191;-89
2022/06/24 02:01:18;;;;;;;3.30;2.30;;;18.60;99.90;;;;;;5037493;28;20641;-89
2022/06/24 02:03:43;;;;;;;4.93;3.10;;;18.50;99.90;;;;;;5034272;28;20187;-89
2022/06/24 02:06:11;;;;;;;3.47;2.63;;;18.50;99.90;;;;;;5036993;28;20283;-89
2022/06/24 02:08:37;;;;;;;3.60;2.53;;;18.50;99.90;;;;;;5036790;28;20240;-89
2022/06/24 02:13:48;;;;;;;4.00;2.30;;;18.50;99.90;;;;;;5037155;28;21009;-90
2022/06/24 02:16:16;;;;;;;5.40;2.90;;;18.50;99.90;;;;;;5036495;28;20466;-89
2022/06/24 02:18:41;;;;;;;2.63;2.20;;;18.40;99.90;;;;;;5029780;28;20477;-89
2022/06/24 02:21:07;;;;;;;2.23;1.70;;;18.30;99.90;;;;;;5032558;28;20562;-89
2022/06/24 02:23:33;;;;;;;3.50;2.43;;;18.20;99.90;;;;;;5034855;28;20179;-90
2022/06/24 02:25:59;;;;;;;2.60;2.40;;;18.20;99.90;;;;;;5036522;28;20186;-89
2022/06/24 02:28:24;;;;;;;3.57;2.50;;;18.20;99.90;;;;;;5032358;28;20191;-89
2022/06/24 02:30:56;;;;;;;3.37;2.33;;;18.10;99.90;;;;;;5032164;28;20438;-89
2022/06/24 02:33:22;;;;;;;4.57;2.10;;;18.10;99.90;;;;;;5034221;28;20187;-89
2022/06/24 02:35:48;;;;;;;3.00;2.13;;;18.20;99.90;;;;;;5030448;28;20438;-89
2022/06/24 02:38:22;;;;;;;5.43;2.50;;;18.20;99.90;;;;;;5028953;28;20409;-89
2022/06/24 02:40:59;;;;;;;4.40;2.27;;;18.10;99.90;;;;;;5049928;28;20182;-89
2022/06/24 02:43:33;;;;;;;4.17;2.50;;;18.00;99.90;;;;;;5035318;28;21726;-90
2022/06/24 02:46:13;;;;;;;2.97;2.43;;;18.00;99.90;;;;;;5034429;28;20474;-89
2022/06/24 02:52:00;;;;;;;5.80;2.30;;;18.00;99.90;;;;;;5015640;28;20449;-89
2022/06/24 02:54:26;;;;;;;4.37;2.50;;;18.00;99.90;;;;;;5032953;28;20426;-89
2022/06/24 02:56:51;;;;;;;3.20;2.40;;;18.00;99.90;;;;;;5034034;28;20183;-90
2022/06/24 02:59:18;;;;;;;3.33;2.63;;;18.00;99.90;;;;;;5033046;28;20214;-90
2022/06/24 03:01:43;;;;;;;5.80;2.80;;;18.00;99.90;;;;;;5036710;28;20805;-89
2022/06/24 03:04:09;;;;;;;3.50;2.33;;;18.00;99.90;;;;;;5033078;28;20237;-90
2022/06/24 03:06:34;;;;;;;5.00;2.60;;;18.00;99.90;;;;;;5033467;28;20238;-89
2022/06/24 03:09:00;;;;;;;5.63;3.40;;;18.10;99.90;;;;;;5049814;28;20283;-89
2022/06/24 03:11:25;;;;;;;3.23;2.93;;;18.10;99.90;;;;;;5035299;28;20175;-89
2022/06/24 03:13:51;;;;;;;3.67;2.97;;;18.00;99.90;;;;;;5036679;28;20192;-90
2022/06/24 03:16:16;;;;;;;5.73;3.30;;;17.90;99.90;;;;;;5033942;28;20184;-90
2022/06/24 03:18:42;;;;;;;3.80;3.30;;;17.90;99.90;;;;;;5038029;28;20328;-90
2022/06/24 03:21:08;;;;;;;5.37;3.40;;;17.90;99.90;;;;;;5024533;28;21550;-89
2022/06/24 03:23:33;;;;;;;3.50;3.20;;;17.90;99.90;;;;;;5035420;28;20199;-89
2022/06/24 03:26:11;;;;;;;5.53;3.30;;;17.90;99.90;;;;;;5037392;28;20188;-90
2022/06/24 03:28:39;;;;;;;4.13;3.37;;;17.90;99.90;;;;;;5034138;28;20194;-89
2022/06/24 03:31:18;;;;;;;5.63;3.57;;;17.80;99.90;;;;;;5037142;28;20438;-89
2022/06/24 03:33:45;;;;;;;3.73;2.60;;;17.80;99.90;;;;;;5023854;28;20446;-89
2022/06/24 03:36:11;;;;;;;3.87;2.77;;;17.70;99.90;;;;;;5027427;28;20446;-90
2022/06/24 03:38:59;;;;;;;2.93;2.70;;;17.60;99.90;;;;;;5049557;28;20495;-89
2022/06/24 03:41:25;;;;;;;4.10;3.63;;;17.70;99.90;;;;;;5020524;28;20500;-90
2022/06/24 03:43:50;;;;;;;5.80;3.53;;;17.60;99.90;;;;;;5032778;28;20441;-90
2022/06/24 03:46:18;;;;;;;4.93;4.40;;;17.60;99.90;;;;;;5030175;28;20239;-90
2022/06/24 03:48:43;;;;;;;4.73;3.17;;;17.50;99.90;;;;;;5031551;28;20994;-90
2022/06/24 03:51:11;;;;;;;4.20;3.13;;;17.50;99.90;;;;;;5036657;28;20190;-90
2022/06/24 03:53:36;;;;;;;3.73;3.37;;;17.60;99.90;;;;;;5032890;28;20241;-90
2022/06/24 03:56:02;;;;;;;4.13;3.73;;;17.50;99.90;;;;;;5035130;28;20430;-89
2022/06/24 03:58:28;;;;;;;4.93;3.50;;;17.60;99.90;;;;;;5036665;28;20745;-89
2022/06/24 04:01:00;;;;;;;3.60;3.30;;;17.50;99.90;;;;;;5055096;28;20195;-90
2022/06/24 04:03:40;;;;;;;5.27;3.83;;;17.50;99.90;;;;;;5038631;28;20192;-89
2022/06/24 04:06:05;;;;;;;6.40;3.77;;;17.50;99.90;;;;;;5034886;28;20796;-90
2022/06/24 04:08:31;;;;;;;4.00;3.60;;;17.40;99.90;;;;;;5043637;28;20454;-89
2022/06/24 04:10:57;;;;;;;3.47;3.07;;;17.50;99.90;;;;;;5037393;28;20271;-89
2022/06/24 04:13:22;;;;;;;4.70;3.13;;;17.50;99.90;;;;;;5035931;28;20688;-89
2022/06/24 04:15:51;;;;;;;5.80;3.40;;;17.40;99.90;;;;;;5029871;28;20178;-89
2022/06/24 04:18:17;;;;;;;4.93;3.50;;;17.40;99.90;;;;;;5029194;28;20198;-89
2022/06/24 04:20:42;;;;;;;3.77;3.47;;;17.40;99.90;;;;;;5031105;28;20430;-90
2022/06/24 04:23:08;;;;;;;3.63;3.30;;;17.50;99.90;;;;;;5037803;28;20180;-89
2022/06/24 04:25:34;;;;;;;9.03;3.37;;;17.50;99.90;;;;;;5036349;28;20508;-89
2022/06/24 04:28:01;;;;;;;5.10;3.00;;;17.60;99.90;;;;;;5030449;28;20255;-90
2022/06/24 04:30:26;;;;;;;6.30;3.30;;;17.50;99.90;;;;;;5039658;28;20438;-90
2022/06/24 04:32:52;;;;;;;6.13;3.40;;;17.60;99.90;;;;;;5037173;28;20998;-90
2022/06/24 04:35:18;;;;;;;5.00;2.93;;;17.60;99.90;;;;;;5036784;28;20187;-89
2022/06/24 04:37:44;;;;;;;6.43;3.97;;;17.60;99.90;;;;;;5034505;28;20223;-89
2022/06/24 04:40:13;;;;;;;7.03;3.27;;;17.60;99.90;;;;;;5027643;28;20188;-89
2022/06/24 04:42:39;;;;;;;5.40;3.47;;;17.50;99.90;;;;;;5033580;28;20473;-89
2022/06/24 04:45:06;;;;;;;8.10;2.93;;;17.50;99.90;;;;;;5035638;28;20842;-89
2022/06/24 04:47:32;;;;;;;5.63;3.53;;;17.60;99.90;;;;;;5033143;28;20471;-90
2022/06/24 04:49:57;;;;;;;5.83;3.57;;;17.70;99.90;;;;;;5039406;28;20492;-90
2022/06/24 04:52:26;;;;;;;9.83;4.07;;;17.70;99.90;;;;;;5028068;28;20222;-90
2022/06/24 04:54:51;;;;;;;3.97;3.67;;;17.70;99.90;;;;;;5038576;28;20191;-89
2022/06/24 04:57:17;;;;;;;7.73;3.37;;;17.70;99.90;;;;;;5036581;28;20963;-90
2022/06/24 04:59:43;;;;;;;5.40;3.73;;;17.80;99.90;;;;;;5033729;28;20207;-89
2022/06/24 05:02:08;;;;;;;7.20;4.53;;;17.90;99.90;;;;;;5032753;28;20187;-90
2022/06/24 05:04:37;;;;;;;5.60;3.90;;;17.90;99.90;;;;;;5040326;28;20211;-89
2022/06/24 05:07:03;;;;;;;5.00;4.40;;;18.00;99.90;;;;;;5034299;28;20223;-90
2022/06/24 05:09:29;;;;;;;4.90;3.33;;;18.10;99.90;;;;;;5030372;28;20822;-89
2022/06/24 05:11:55;;;;;;;4.77;3.30;;;18.20;99.90;;;;;;5020492;28;20529;-90
2022/06/24 05:14:20;;;;;;;6.67;3.57;;;18.20;99.90;;;;;;5025474;28;20187;-90
2022/06/24 05:16:46;;;;;;;4.50;3.63;;;18.30;99.90;;;;;;5031140;28;20189;-89
2022/06/24 05:19:11;;;;;;;6.70;3.77;;;18.40;99.90;;;;;;5032760;28;20198;-86
2022/06/24 05:21:37;;;;;;;4.00;3.60;;;18.50;99.90;;;;;;5023359;28;21826;-85
2022/06/24 05:24:03;;;;;;;4.20;3.77;;;18.60;99.90;;;;;;5036025;28;20680;-85
2022/06/24 05:26:28;;;;;;;6.67;3.97;;;18.60;99.90;;;;;;5026873;28;20203;-85
2022/06/24 05:28:54;;;;;;;5.97;3.57;;;18.60;99.90;;;;;;5036744;28;20184;-88
2022/06/24 05:31:20;;;;;;;5.13;3.50;;;18.60;99.90;;;;;;5030347;28;20172;-87
2022/06/24 05:33:45;;;;;;;5.17;3.53;;;18.70;99.90;;;;;;5035109;28;20557;-85
2022/06/24 05:36:17;;;;;;;3.93;3.53;;;18.80;99.90;;;;;;5027535;28;20195;-86
2022/06/24 05:38:46;;;;;;;4.53;3.67;;;19.00;99.90;;;;;;5024281;28;20187;-88
2022/06/24 05:41:45;;;;;;;;;;;;;;;;;;;;;
2022/06/24 05:44:00;;;;;;;5.60;3.53;;;19.00;99.90;;;;;;5031070;28;20534;-87
2022/06/24 05:46:26;;;;;;;4.97;3.47;;;19.00;99.90;;;;;;5025075;28;20462;-88
2022/06/24 05:48:52;;;;;;;7.80;3.37;;;19.10;99.90;;;;;;5031171;28;21156;-89
2022/06/24 05:51:18;;;;;;;4.47;3.13;;;19.10;99.90;;;;;;5023916;28;21551;-84
2022/06/24 05:56:29;;;;;;;4.50;3.60;;;19.20;99.90;;;;;;5031000;28;20198;-86
2022/06/24 05:58:57;;;;;;;5.60;3.80;;;19.00;99.90;;;;;;5024241;28;20462;-86
2022/06/24 06:01:22;;;;;;;5.00;3.80;;;19.00;99.90;;;;;;5029709;28;20435;-85
2022/06/24 06:03:48;;;;;;;6.00;4.13;;;19.00;99.90;;;;;;5024920;28;20503;-86
2022/06/24 06:06:14;;;;;;;6.47;3.67;;;19.10;99.90;;;;;;5035737;28;20180;-86
2022/06/24 06:08:40;;;;;;;6.57;4.70;;;19.10;99.90;;;;;;5033254;28;20630;-85
2022/06/24 06:11:22;;;;;;;5.50;4.27;;;19.30;99.90;;;;;;5025457;28;20187;-85
2022/06/24 06:13:49;;;;;;;6.23;4.10;;;19.40;99.90;;;;;;5024448;28;20192;-86
2022/06/24 06:16:15;;;;;;;5.90;3.80;;;19.50;99.90;;;;;;5033176;28;20432;-86
2022/06/24 06:18:41;;;;;;;6.00;3.60;;;19.60;99.90;;;;;;5031603;28;21551;-86
2022/06/24 06:21:11;;;;;;;7.10;3.70;;;19.70;99.90;;;;;;5028399;28;20628;-89
2022/06/24 06:23:40;;;;;;;15.50;13.03;;;19.80;99.90;;;;;;5031315;28;20435;-89
2022/06/24 06:26:08;;;;;;;4.87;3.60;;;20.00;99.90;;;;;;5025044;28;20493;-91
2022/06/24 06:28:34;;;;;;;4.53;3.60;;;19.90;99.90;;;;;;5028059;28;20476;-86
2022/06/24 06:31:38;;;;;;;3.93;3.57;;;19.80;99.90;;;;;;5032658;28;20426;-93
2022/06/24 06:34:04;;;;;;;5.93;4.10;;;19.90;99.90;;;;;;5039139;28;20445;-92
2022/06/24 06:36:53;;;;;;;6.13;3.03;;;20.10;99.90;;;;;;5029252;28;20434;-92
2022/06/24 06:39:19;;;;;;;5.53;3.50;;;20.30;99.90;;;;;;5021122;28;20185;-88
2022/06/24 06:41:46;;;;;;;3.80;3.00;;;20.50;99.90;;;;;;5019911;28;20438;-86
2022/06/24 06:44:34;;;;;;;3.87;3.10;;;20.70;99.90;;;;;;5027871;28;20214;-86
2022/06/24 06:47:00;;;;;;;4.13;2.67;;;20.80;99.90;;;;;;5018653;28;20463;-88
2022/06/24 06:49:25;;;;;;;4.43;3.43;;;20.90;99.90;;;;;;5047630;28;20794;-87
2022/06/24 06:52:02;;;;;;;7.57;3.13;;;21.00;99.90;;;;;;5028807;28;20180;-88
2022/06/24 06:54:27;;;;;;;3.57;3.20;;;21.00;99.90;;;;;;5033207;28;20547;-87
2022/06/24 06:56:59;;;;;;;4.20;2.77;;;21.30;99.90;;;;;;5032650;28;20434;-88
2022/06/24 06:59:31;;;;;;;4.97;2.87;;;21.40;99.90;;;;;;5031809;28;20334;-87
2022/06/24 07:01:56;;;;;;;11.37;3.27;;;21.40;99.90;;;;;;5031651;28;20476;-87
2022/06/24 07:04:22;;;;;;;4.63;3.07;;;21.40;99.90;;;;;;5037971;28;20836;-87
2022/06/24 07:06:52;;;;;;;6.00;2.93;;;21.40;99.90;;;;;;5036839;28;20678;-88
2022/06/24 07:09:22;;;;;;;2.60;2.30;;;21.40;99.90;;;;;;5035831;28;20869;-87
2022/06/24 07:11:47;;;;;;;5.67;2.87;;;21.50;99.90;;;;;;5031753;28;20450;-87
2022/06/24 07:14:14;;;;;;;6.77;2.47;;;21.60;99.90;;;;;;5033323;28;20862;-88
2022/06/24 07:16:42;;;;;;;4.20;2.40;;;21.60;99.90;;;;;;5037624;28;20219;-87
2022/06/24 07:19:08;;;;;;;3.93;2.20;;;21.80;99.90;;;;;;5034439;28;20433;-87
2022/06/24 07:21:34;;;;;;;6.63;2.67;;;21.90;99.90;;;;;;5033916;28;20464;-87
2022/06/24 07:24:06;;;;;;;2.87;2.53;;;21.90;99.90;;;;;;5025412;28;20535;-87
2022/06/24 07:26:32;;;;;;;3.23;2.43;;;22.60;99.90;;;;;;5032869;28;20299;-88
2022/06/24 07:29:00;;;;;;;2.90;2.60;;;21.90;99.90;;;;;;5032468;28;20600;-87
2022/06/24 07:31:31;;;;;;;5.07;2.50;;;21.90;99.90;;;;;;5032149;28;20187;-87
2022/06/24 07:33:56;;;;;;;3.33;2.37;;;21.90;99.90;;;;;;5035389;28;20449;-87
2022/06/24 07:36:22;;;;;;;2.60;2.07;;;21.90;99.90;;;;;;5039631;28;20453;-87
2022/06/24 07:39:02;;;;;;;3.47;2.27;;;22.20;99.90;;;;;;5036554;28;20586;-87
2022/06/24 07:41:27;;;;;;;4.00;2.83;;;22.40;99.90;;;;;;5038190;28;20183;-87
2022/06/24 07:43:53;;;;;;;2.77;2.50;;;22.50;99.90;;;;;;5042117;28;21082;-87
2022/06/24 07:46:18;;;;;;;4.13;2.77;;;22.70;99.90;;;;;;5038488;28;20176;-88
2022/06/24 07:49:02;;;;;;;4.47;2.80;;;22.70;99.90;;;;;;5041258;28;20207;-87
2022/06/24 07:51:28;;;;;;;5.27;2.73;;;22.60;99.90;;;;;;5035051;28;20203;-87
2022/06/24 07:54:05;;;;;;;3.23;2.37;;;22.90;99.90;;;;;;5034541;28;20455;-87
2022/06/24 07:59:18;;;;;;;4.03;3.57;;;22.90;99.90;;;;;;5040920;28;20460;-87
2022/06/24 08:01:44;;;;;;;2.50;2.30;;;23.00;99.90;;;;;;5036166;28;20442;-87
2022/06/24 08:04:10;;;;;;;2.40;2.17;;;22.80;99.90;;;;;;5039314;28;20815;-86
2022/06/24 08:06:39;;;;;;;2.87;2.23;;;22.60;99.90;;;;;;5041673;28;20207;-87
2022/06/24 08:09:09;;;;;;;3.40;2.30;;;22.50;99.90;;;;;;5040595;28;20239;-88
2022/06/24 08:11:36;;;;;;;4.10;2.27;;;22.40;99.90;;;;;;5039970;28;20483;-87
2022/06/24 08:14:10;;;;;;;2.63;2.43;;;22.30;99.90;;;;;;5038151;28;20451;-88
2022/06/24 08:16:36;;;;;;;3.83;2.80;;;22.10;99.90;;;;;;5059861;28;20440;-88
2022/06/24 08:19:02;;;;;;;2.97;2.20;;;22.00;99.90;;;;;;5040973;28;20441;-88
2022/06/24 08:21:31;;;;;;;2.93;2.73;;;22.10;99.90;;;;;;5041057;28;22335;-88
2022/06/24 08:23:56;;;;;;;4.17;2.47;;;21.80;99.90;;;;;;5037544;28;20453;-88
2022/06/24 08:26:31;;;;;;;4.77;2.50;;;21.90;99.90;;;;;;5041108;28;21235;-87
2022/06/24 08:28:57;;;;;;;3.00;2.53;;;21.80;99.90;;;;;;5034554;28;20219;-87
2022/06/24 08:31:23;;;;;;;3.83;2.37;;;21.90;99.90;;;;;;5058822;28;20481;-88
2022/06/24 08:33:51;;;;;;;3.17;2.43;;;22.00;99.90;;;;;;5032038;28;20183;-88
2022/06/24 08:36:16;;;;;;;4.80;3.00;;;22.00;99.90;;;;;;5040734;28;20533;-87
2022/06/24 08:38:42;;;;;;;3.40;2.50;;;22.00;99.90;;;;;;5030925;28;20891;-88
2022/06/24 08:41:08;;;;;;;3.27;2.90;;;21.90;99.90;;;;;;5035459;28;20565;-88
2022/06/24 08:43:37;;;;;;;3.40;3.03;;;21.90;99.90;;;;;;5040755;28;20190;-88
2022/06/24 08:46:04;;;;;;;8.83;3.37;;;22.00;99.90;;;;;;5039145;28;20788;-88
2022/06/24 08:48:31;;;;;;;4.90;2.90;;;22.00;99.90;;;;;;5038674;28;20446;-87
2022/06/24 08:50:59;;;;;;;4.60;3.10;;;22.00;99.90;;;;;;5032289;28;20434;-87
2022/06/24 08:53:27;;;;;;;3.70;2.63;;;22.00;99.90;;;;;;5050496;28;20970;-87
2022/06/24 08:55:54;;;;;;;2.50;2.27;;;22.10;99.90;;;;;;5041387;28;20442;-87
2022/06/24 08:58:21;;;;;;;3.70;2.30;;;22.40;99.90;;;;;;5040823;28;21134;-87
2022/06/24 09:01:15;;;;;;;2.50;2.30;;;22.40;99.90;;;;;;5040393;28;20484;-87
2022/06/24 09:03:43;;;;;;;5.07;3.33;;;22.40;99.90;;;;;;5033025;28;20441;-86
2022/06/24 09:06:39;;;;;;;5.10;2.83;;;22.50;99.90;;;;;;5028909;28;20640;-86
2022/06/24 09:09:05;;;;;;;3.63;2.37;;;22.80;99.90;;;;;;5035972;28;20441;-86
2022/06/24 09:11:42;;;;;;;2.80;2.60;;;23.00;99.90;;;;;;5033236;28;20460;-87
2022/06/24 09:14:09;;;;;;;6.83;2.67;;;23.30;99.90;;;;;;5044384;28;20609;-87
2022/06/24 09:16:38;;;;;;;3.27;2.43;;;23.00;99.90;;;;;;5038613;28;20434;-87
2022/06/24 09:19:06;;;;;;;5.53;2.70;;;23.10;99.90;;;;;;5037987;28;20453;-87
2022/06/24 09:22:17;;;;;;;2.53;2.33;;;23.30;99.90;;;;;;5035472;28;20477;-87
2022/06/24 09:24:51;;;;;;;3.10;2.20;;;23.10;99.90;;;;;;5038676;28;20446;-86
2022/06/24 09:27:20;;;;;;;3.30;2.53;;;23.30;99.90;;;;;;5041366;28;20468;-87
2022/06/24 09:29:50;;;;;;;3.77;2.33;;;23.50;99.90;;;;;;5039355;28;20435;-88
2022/06/24 09:32:16;;;;;;;5.10;2.13;;;23.80;99.90;;;;;;5034010;28;21043;-88
2022/06/24 09:34:58;;;;;;;2.70;2.17;;;23.50;99.90;;;;;;5039276;28;20525;-88
2022/06/24 09:37:44;;;;;;;3.23;2.13;;;23.40;99.90;;;;;;5038768;28;20519;-88
2022/06/24 09:40:25;;;;;;;2.70;2.50;;;23.60;99.90;;;;;;5045553;28;20434;-88
2022/06/24 09:43:09;;;;;;;2.97;2.63;;;23.40;99.90;;;;;;5044811;28;20449;-88
2022/06/24 09:45:52;;;;;;;3.30;2.63;;;23.40;99.90;;;;;;5036352;28;20480;-89
2022/06/24 09:48:32;;;;;;;2.70;2.33;;;23.70;99.90;;;;;;5030771;28;20484;-88
2022/06/24 09:51:08;;;;;;;2.60;2.30;;;23.60;99.90;;;;;;5032742;28;20553;-88
2022/06/24 09:53:45;;;;;;;2.93;2.23;;;24.10;99.90;;;;;;5022738;28;20440;-88
2022/06/24 09:56:15;;;;;;;3.07;2.40;;;24.10;99.40;;;;;;5038998;28;20473;-89
2022/06/24 10:00:40;;;;;;;3.00;2.20;;;24.90;99.00;;;;;;5035265;28;20460;-88
2022/06/24 10:01:29;;;;;;;3.80;2.30;;;24.80;99.50;;;;;;5029170;28;20483;-88
2022/06/24 10:03:55;;;;;;;2.40;2.20;;;25.20;97.40;;;;;;5028095;28;20499;-88
2022/06/24 10:06:26;;;;;;;3.50;2.30;;;25.00;97.70;;;;;;5028269;28;20951;-88
2022/06/24 10:08:52;;;;;;;2.10;2.00;;;24.50;97.80;;;;;;5032923;28;20492;-88
2022/06/24 10:11:34;;;;;;;2.47;2.20;;;24.60;99.40;;;;;;5028748;28;20496;-88
2022/06/24 10:14:11;;;;;;;3.30;2.37;;;25.40;98.50;;;;;;5033723;28;21351;-88
2022/06/24 10:17:30;;;;;;;2.53;2.20;;;26.20;96.20;;;;;;5031615;28;20441;-89
2022/06/24 10:19:56;;;;;;;3.17;2.17;;;25.70;95.30;;;;;;5027274;28;20784;-88
2022/06/24 10:22:49;;;;;;;4.60;2.13;;;25.00;95.70;;;;;;5027719;28;20442;-89
2022/06/24 10:25:47;;;;;;;2.50;2.30;;;24.50;96.70;;;;;;5038286;28;20804;-89
2022/06/24 10:28:18;;;;;;;3.33;2.13;;;24.20;98.20;;;;;;5052531;28;20477;-91
2022/06/24 10:30:47;;;;;;;2.50;2.30;;;24.50;97.50;;;;;;5035033;28;20484;-89
2022/06/24 10:33:14;;;;;;;4.23;2.33;;;24.80;96.90;;;;;;5046306;28;20451;-91
2022/06/24 10:36:06;;;;;;;3.10;2.00;;;25.10;96.20;;;;;;5039148;28;20525;-89
2022/06/24 10:38:47;;;;;;;4.23;2.47;;;25.80;95.60;;;;;;5033301;28;20439;-89
2022/06/24 10:41:15;;;;;;;2.27;2.07;;;26.60;94.70;;;;;;5038340;28;20433;-89
2022/06/24 10:43:43;;;;;;;2.87;2.10;;;27.50;93.50;;;;;;5032653;28;20442;-89
2022/06/24 10:46:11;;;;;;;3.67;2.20;;;27.50;92.80;;;;;;5032463;28;20442;-90
2022/06/24 10:48:43;;;;;;;3.60;2.00;;;27.80;92.40;;;;;;5032303;28;20452;-90
2022/06/24 10:51:19;;;;;;;4.50;2.03;;;28.10;92.60;;;;;;5035572;28;20445;-89
2022/06/24 10:54:03;;;;;;;2.20;1.80;;;27.50;92.90;;;;;;5038894;28;20531;-89
2022/06/24 10:56:48;;;;;;;3.10;1.83;;;26.90;91.00;;;;;;5040909;28;20472;-89
2022/06/24 10:59:17;;;;;;;2.33;2.10;;;26.90;92.10;;;;;;5040332;28;20670;-90
2022/06/24 11:01:46;;;;;;;3.80;1.70;;;27.00;94.00;;;;;;5037688;28;20969;-90
2022/06/24 11:04:30;;;;;;;6.30;2.50;;;27.00;92.20;;;;;;5038818;28;20442;-88
2022/06/24 11:07:18;;;;;;;3.30;2.10;;;26.60;92.30;;;;;;5037639;28;20834;-89
2022/06/24 11:09:44;;;;;;;2.50;2.10;;;26.20;93.10;;;;;;5039933;28;20780;-89
2022/06/24 11:12:30;;;;;;;2.03;1.93;;;25.80;93.10;;;;;;5039297;28;20492;-89
2022/06/24 11:14:56;;;;;;;2.10;1.90;;;25.70;93.30;;;;;;5039600;28;20289;-89
2022/06/24 11:17:25;;;;;;;2.10;1.57;;;25.60;92.70;;;;;;5040603;28;21597;-89
2022/06/24 11:19:55;;;;;;;1.77;1.67;;;26.20;93.40;;;;;;5040139;28;20661;-89
2022/06/24 11:22:21;;;;;;;2.17;1.97;;;27.10;93.00;;;;;;5044026;28;20438;-88
2022/06/24 11:24:49;;;;;;;1.43;1.30;;;28.10;87.70;;;;;;5040316;28;20446;-89
2022/06/24 11:27:15;;;;;;;1.73;1.63;;;27.40;88.60;;;;;;5042717;28;20466;-88
2022/06/24 11:30:00;;;;;;;1.40;1.40;;;27.30;92.00;;;;;;5040066;28;20485;-89
2022/06/24 11:32:26;;;;;;;1.90;1.80;;;27.30;88.20;;;;;;5039123;28;20692;-89
2022/06/24 11:34:54;;;;;;;2.80;1.90;;;26.80;89.60;;;;;;5036471;28;20453;-88
2022/06/24 11:37:26;;;;;;;2.60;1.60;;;27.00;88.70;;;;;;5041354;28;20211;-90
2022/06/24 11:39:53;;;;;;;3.13;1.60;;;27.20;88.50;;;;;;5033066;28;20443;-88
2022/06/24 11:42:20;;;;;;;1.80;1.70;;;27.10;89.20;;;;;;5035733;28;20508;-90
2022/06/24 11:44:45;;;;;;;4.07;1.80;;;26.80;90.90;;;;;;5036811;28;20521;-90
2022/06/24 11:47:11;;;;;;;1.73;1.63;;;26.60;90.10;;;;;;5040671;28;20572;-89
2022/06/24 11:49:39;;;;;;;3.03;1.80;;;26.80;88.30;;;;;;5039171;28;20184;-89
2022/06/24 11:52:11;;;;;;;1.80;1.70;;;26.90;87.80;;;;;;5035004;28;20588;-90
2022/06/24 11:54:39;;;;;;;2.00;1.80;;;26.60;85.90;;;;;;5052215;28;20445;-90
2022/06/24 11:57:08;;;;;;;4.07;1.63;;;26.40;89.80;;;;;;5030837;28;20491;-89
2022/06/24 11:59:34;;;;;;;1.83;1.73;;;27.40;86.90;;;;;;5038811;28;20600;-90
2022/06/24 12:02:00;;;;;;;1.70;1.60;;;27.30;86.20;;;;;;5039568;28;20908;-89
2022/06/24 12:04:27;;;;;;;3.27;1.90;;;27.10;86.50;;;;;;5036275;28;20513;-90
2022/06/24 12:06:53;;;;;;;2.17;1.90;;;26.60;86.60;;;;;;5034392;28;20216;-90
2022/06/24 12:09:18;;;;;;;2.80;1.80;;;26.30;88.80;;;;;;5040398;28;20445;-90
2022/06/24 12:11:44;;;;;;;1.93;1.80;;;26.80;89.10;;;;;;5027414;28;20180;-89
2022/06/24 12:14:15;;;;;;;3.83;2.20;;;26.90;90.20;;;;;;5035576;28;20233;-89
2022/06/24 12:17:08;;;;;;;2.00;1.90;;;27.90;91.10;;;;;;5037075;28;20180;-89
2022/06/24 12:19:40;;;;;;;1.60;1.50;;;28.20;84.90;;;;;;5031498;28;20442;-88
2022/06/24 12:22:14;;;;;;;1.97;1.67;;;29.00;83.80;;;;;;5052069;28;20450;-88
2022/06/24 12:24:41;;;;;;;1.77;1.67;;;27.80;84.10;;;;;;5036461;28;20799;-89
2022/06/24 12:27:08;;;;;;;2.20;2.00;;;27.20;85.60;;;;;;5042402;28;20882;-89
2022/06/24 12:29:39;;;;;;;1.87;1.77;;;26.50;90.50;;;;;;5043456;28;20454;-89
2022/06/24 12:32:05;;;;;;;2.90;2.30;;;25.90;91.90;;;;;;5039765;28;20456;-89
2022/06/24 12:34:36;;;;;;;2.40;1.83;;;25.40;92.60;;;;;;5036649;28;20517;-89
2022/06/24 12:37:07;;;;;;;13.53;7.13;;;25.20;93.00;;;;;;5037788;28;20896;-88
2022/06/24 12:39:36;;;;;;;2.83;2.53;;;25.20;93.90;;;;;;5057081;28;21206;-89
2022/06/24 12:42:02;;;;;;;4.07;2.90;;;25.30;94.80;;;;;;5038121;28;21497;-90
2022/06/24 12:44:42;;;;;;;4.07;3.00;;;24.90;96.80;;;;;;5043402;28;20565;-88
2022/06/24 12:53:05;;;;;;;3.83;3.53;;;24.30;99.30;;;;;;4992998;28;21074;-89
2022/06/24 12:55:32;;;;;;;3.30;2.83;;;24.20;99.90;;;;;;5022805;28;20447;-88
2022/06/24 12:57:58;;;;;;;6.57;3.60;;;24.10;99.90;;;;;;5032011;28;20441;-89
2022/06/24 13:00:24;;;;;;;4.40;2.77;;;24.00;99.90;;;;;;5033129;28;20458;-88
2022/06/24 13:02:54;;;;;;;3.00;2.70;;;24.00;99.90;;;;;;5033309;28;20773;-88
2022/06/24 13:05:23;;;;;;;3.10;2.80;;;24.00;99.80;;;;;;5031687;28;20828;-89
2022/06/24 13:07:49;;;;;;;2.60;2.30;;;23.60;99.90;;;;;;5031739;28;20772;-88
2022/06/24 13:10:15;;;;;;;2.80;2.53;;;23.60;99.90;;;;;;5032074;28;20445;-88
2022/06/24 13:12:42;;;;;;;3.30;2.43;;;23.50;99.90;;;;;;5033345;28;20471;-89
2022/06/24 13:15:09;;;;;;;3.20;2.47;;;23.50;99.90;;;;;;5030961;28;20477;-90
2022/06/24 13:17:37;;;;;;;3.60;2.63;;;23.40;99.90;;;;;;5032457;28;20940;-90
2022/06/24 13:20:05;;;;;;;11.27;4.60;;;22.80;99.90;;;;;;5043244;28;20830;-88